M I D A S
Marine Information and Data Acquisition System
Tripno 711 of the Zeeleeuw from 2004-05-07 07:14:48 to 2004-05-07 09:23:56
Back to CruiseResearch ActivitiesStationsMapUnderway DataData graphs

EquipmentUnitsComment
TimeDGPSUTC
LatitudeDGPSDM.mWGS84
LongitudeDGPSDM.mWGS84
HeadingGyrodeg 
SOGDGPSknotsSpeed over ground
COGDGPSdegCourse over ground
DepthEcho soundermeters200 kHz
Missing or incorrect values are displayed as -999
Navigation data collected by the RV Zeeleeuw from 2004-05-07 07:14:48 to 2004-05-07 09:23:56
                                                                                    Next 1000 lines
Time Latitude Longitude Heading SOG COG Depth
2004-05-07 07:14:56 51°13.595 2°56.098 127.5   204 5.8
2004-05-07 07:15:01 51°13.595 2°56.098 127.5   131 5.7
2004-05-07 07:15:06 51°13.595 2°56.098 127 0.1 134 5.7
2004-05-07 07:15:11 51°13.595 2°56.098 125.7 0.1 174 5.7
2004-05-07 07:15:16 51°13.595 2°56.098 124.4 0.1 194 5.7
2004-05-07 07:15:21 51°13.594 2°56.098 122.6 0.1 196 5.7
2004-05-07 07:15:26 51°13.594 2°56.098 121.3 0.1 187 5.7
2004-05-07 07:15:31 51°13.594 2°56.098 119.8 0.1 184 5.7
2004-05-07 07:15:36 51°13.594 2°56.098 118.3 0.1 209 5.8
2004-05-07 07:15:41 51°13.594 2°56.097 116.9 0.1 252 5.8
2004-05-07 07:15:46 51°13.594 2°56.097 116.1 0.4 283 5.9
2004-05-07 07:15:50 51°13.595 2°56.095 115.9 0.9 291 5.8
2004-05-07 07:15:56 51°13.596 2°56.092 115.9 1.3 290 6
2004-05-07 07:16:01 51°13.596 2°56.088 116 1.8 294 6.1
2004-05-07 07:16:06 51°13.598 2°56.084 116.4 2.1 293 6.2
2004-05-07 07:16:12 51°13.6 2°56.078 117.1 2.4 295 -999
2004-05-07 07:16:17 51°13.601 2°56.073 117.9 2.8 296 -999
2004-05-07 07:16:22 51°13.603 2°56.067 118.3 3 296 -999
2004-05-07 07:16:26 51°13.605 2°56.061 118.7 3.3 296 -999
2004-05-07 07:16:31 51°13.607 2°56.054 119 3.5 296 -999
2004-05-07 07:16:37 51°13.61 2°56.046 119.4 3.8 296 -999
2004-05-07 07:16:41 51°13.612 2°56.039 119.4 3.9 296 -999
2004-05-07 07:16:46 51°13.615 2°56.031 119.3 4.1 296 -999
2004-05-07 07:16:52 51°13.618 2°56.021 119.1 4.2 296 -999
2004-05-07 07:16:57 51°13.62 2°56.012 119 4.4 296 -999
2004-05-07 07:17:02 51°13.623 2°56.003 118.6 4.5 295 -999
2004-05-07 07:17:07 51°13.626 2°55.994 118.3 4.6 295 -999
2004-05-07 07:17:11 51°13.628 2°55.986 118.1 4.7 295 -999
2004-05-07 07:17:17 51°13.632 2°55.974 117.9 4.8 295 -999
2004-05-07 07:17:22 51°13.635 2°55.965 117.6 4.9 295 -999
2004-05-07 07:17:26 51°13.637 2°55.957 117.5 5 294 -999
2004-05-07 07:17:32 51°13.64 2°55.944 117.2 5 294 -999
2004-05-07 07:17:37 51°13.643 2°55.935 116.5 5 294 -999
2004-05-07 07:17:41 51°13.645 2°55.926 115.5 5 293 -999
2004-05-07 07:17:46 51°13.648 2°55.916 114.6 5 292 -999
2004-05-07 07:17:52 51°13.651 2°55.904 113.6 5 292 -999
2004-05-07 07:17:57 51°13.653 2°55.894 112.3 4.9 290 -999
2004-05-07 07:18:02 51°13.655 2°55.884 110.8 4.9 289 -999
2004-05-07 07:18:07 51°13.657 2°55.873 109.3 4.9 288 -999
2004-05-07 07:18:11 51°13.659 2°55.865 107.5 4.9 286 -999
2004-05-07 07:18:17 51°13.661 2°55.852 105.7 4.9 284 -999
2004-05-07 07:18:22 51°13.662 2°55.842 103.9 4.9 283 -999
2004-05-07 07:18:26 51°13.663 2°55.833 102.1 4.8 281 -999
2004-05-07 07:18:32 51°13.665 2°55.821 100.5 4.8 281 -999
2004-05-07 07:18:37 51°13.666 2°55.811 99.3 4.4 278 -999
2004-05-07 07:18:42 51°13.666 2°55.803 98.3 4.1 277 -999
2004-05-07 07:18:46 51°13.667 2°55.797 97.1 3.4 276 -999
2004-05-07 07:18:52 51°13.667 2°55.789 95.2 3.1 276 7.5
2004-05-07 07:18:56 51°13.667 2°55.785 93.6 2 275 7.8
2004-05-07 07:19:01 51°13.668 2°55.782 91.5 1.3 280 7.9
2004-05-07 07:19:05 51°13.668 2°55.782 87.7 0.5 307 8
2004-05-07 07:19:11 51°13.669 2°55.784 81.7 1 48 8.4
2004-05-07 07:19:16 51°13.67 2°55.787 74 1.3 55 8.5
2004-05-07 07:19:21 51°13.672 2°55.789 65.9 1.6 45 8.7
2004-05-07 07:19:26 51°13.673 2°55.791 61.2 1.3 45 8.9
2004-05-07 07:19:31 51°13.674 2°55.792 58.3 0.5 27 8.9
2004-05-07 07:19:36 51°13.674 2°55.791 54.9 0.4 2 9.5
2004-05-07 07:19:41 51°13.674 2°55.79 52.2 0.7 247 9.1
2004-05-07 07:19:46 51°13.673 2°55.787 50.5 1.1 238 9
2004-05-07 07:19:50 51°13.672 2°55.785 49 1.7 234 9.3
2004-05-07 07:19:57 51°13.67 2°55.78 47.8 1.9 232 -999
2004-05-07 07:20:02 51°13.668 2°55.777 46.4 1.8 233 -999
2004-05-07 07:20:07 51°13.667 2°55.774 45.3 1.4 242 -999
2004-05-07 07:20:12 51°13.667 2°55.773 43.3 0.8 245 -999
2004-05-07 07:20:17 51°13.668 2°55.773 38.8 0.6 347 -999
2004-05-07 07:20:22 51°13.67 2°55.774 32 1.3 10 -999
2004-05-07 07:20:26 51°13.672 2°55.774 23.8 2.3 5 -999
2004-05-07 07:20:32 51°13.677 2°55.774 14.5 2.6 2 -999
2004-05-07 07:20:37 51°13.682 2°55.773 4.8 3.7 349 5.3
2004-05-07 07:20:41 51°13.686 2°55.77 357 4.2 343 11.6
2004-05-07 07:20:46 51°13.692 2°55.766 347.1 4.4 337 12.4
2004-05-07 07:20:50 51°13.696 2°55.762 339.7 4.6 328 11.8
2004-05-07 07:20:56 51°13.703 2°55.754 332.5 4.7 327 11.1
2004-05-07 07:21:01 51°13.708 2°55.748 329.1 5 325 11.3
2004-05-07 07:21:06 51°13.714 2°55.74 328.9 5.4 325 10.9
2004-05-07 07:21:11 51°13.722 2°55.734 330.5 5.8 327 9.9
2004-05-07 07:21:16 51°13.729 2°55.726 332.6 6.2 328 8.7
2004-05-07 07:21:21 51°13.737 2°55.719 334.9 6.8 331 8.4
2004-05-07 07:21:26 51°13.746 2°55.711 336.2 7.1 330 8.3
2004-05-07 07:21:30 51°13.753 2°55.705 337.3 7.4 332 8.1
2004-05-07 07:21:36 51°13.764 2°55.696 337.7 7.7 332 8.1
2004-05-07 07:21:41 51°13.774 2°55.688 338 7.9 333 8.1
2004-05-07 07:21:46 51°13.784 2°55.68 338.2 8.1 333 8
2004-05-07 07:21:50 51°13.793 2°55.673 338.6 8.2 334 7.8
2004-05-07 07:21:56 51°13.805 2°55.664 339.3 8.3 334 8.1
2004-05-07 07:22:01 51°13.816 2°55.656 340.1 8.5 335 8.1
2004-05-07 07:22:06 51°13.827 2°55.649 340.5 8.5 336 8.3
2004-05-07 07:22:10 51°13.835 2°55.643 340.8 8.4 336 8.1
2004-05-07 07:22:16 51°13.848 2°55.634 341.1 8.4 336 8.1
2004-05-07 07:22:21 51°13.859 2°55.626 341.4 8.5 337 7.7
2004-05-07 07:22:25 51°13.867 2°55.62 341.5 8.5 336 7.8
2004-05-07 07:22:30 51°13.878 2°55.612 341.1 8.5 336 8.1
2004-05-07 07:22:36 51°13.891 2°55.603 340.8 8.5 336 8.1
2004-05-07 07:22:41 51°13.902 2°55.595 340.5 8.6 335 8
2004-05-07 07:22:46 51°13.913 2°55.587 340.4 8.6 335 8
2004-05-07 07:22:50 51°13.921 2°55.581 340.4 8.6 336 8.1
2004-05-07 07:22:56 51°13.935 2°55.572 341.1 8.7 336 8.6
2004-05-07 07:23:01 51°13.946 2°55.564 341.3 8.7 336 8.9
2004-05-07 07:23:06 51°13.957 2°55.556 340.7 8.8 335 9.8
2004-05-07 07:23:10 51°13.965 2°55.549 340.4 8.8 335 9.6
2004-05-07 07:23:16 51°13.979 2°55.539 340.1 8.9 335 9.2
2004-05-07 07:23:21 51°13.99 2°55.531 339.8 8.9 335 9.4
2004-05-07 07:23:26 51°14.001 2°55.523 339.8 8.9 335 9.1
2004-05-07 07:23:31 51°14.012 2°55.515 340.1 8.9 335 9.5
2004-05-07 07:23:36 51°14.023 2°55.506 340.2 8.9 335 9.5
2004-05-07 07:23:41 51°14.035 2°55.498 339.7 8.9 334 9.6
2004-05-07 07:23:46 51°14.045 2°55.488 339.1 8.9 334 9.5
2004-05-07 07:23:50 51°14.054 2°55.481 339 8.9 334 9.6
2004-05-07 07:23:56 51°14.067 2°55.471 339 9 334 9.6
2004-05-07 07:24:01 51°14.079 2°55.462 339 9 334 9.5
2004-05-07 07:24:06 51°14.09 2°55.453 339 9.1 334 9.4
2004-05-07 07:24:10 51°14.099 2°55.446 338.3 9.1 333 9.5
2004-05-07 07:24:16 51°14.113 2°55.434 337.3 9.5 332 10
2004-05-07 07:24:21 51°14.125 2°55.424 336.9 9.6 332 9.7
2004-05-07 07:24:26 51°14.137 2°55.414 336.4 9.7 331 9.5
2004-05-07 07:24:31 51°14.148 2°55.402 335.2 9.8 330 9.5
2004-05-07 07:24:36 51°14.16 2°55.391 334.4 10 329 9.6
2004-05-07 07:24:41 51°14.172 2°55.379 333.8 10.1 328 9.5
2004-05-07 07:24:45 51°14.182 2°55.369 332.4 10.2 327 9.6
2004-05-07 07:24:51 51°14.196 2°55.353 330.9 10.3 325 9.4
2004-05-07 07:24:56 51°14.208 2°55.34 329.8 10.4 323 9.5
2004-05-07 07:25:01 51°14.219 2°55.326 328.6 10.5 322 9.7
2004-05-07 07:25:06 51°14.23 2°55.311 327.3 10.5 321 9.3
2004-05-07 07:25:10 51°14.239 2°55.299 325.8 10.6 320 9.4
2004-05-07 07:25:16 51°14.253 2°55.28 324.9 10.7 318 9.4
2004-05-07 07:25:21 51°14.263 2°55.263 323 10.8 315 9.3
2004-05-07 07:25:26 51°14.273 2°55.246 320.4 10.9 313 9.3
2004-05-07 07:25:30 51°14.281 2°55.231 317 10.9 311 9.5
2004-05-07 07:25:36 51°14.293 2°55.208 315.6 11.1 310 9.6
2004-05-07 07:25:41 51°14.302 2°55.189 314.9 11.1 308 9.6
2004-05-07 07:25:46 51°14.312 2°55.169 312.7 11.2 306 9.7
2004-05-07 07:25:50 51°14.319 2°55.153 311.6 11.4 306 9.7
2004-05-07 07:25:56 51°14.33 2°55.128 310.8 11.4 305 9.3
2004-05-07 07:26:01 51°14.339 2°55.107 310.6 11.5 305 9.2
2004-05-07 07:26:06 51°14.349 2°55.086 310.6 11.6 305 9.1
2004-05-07 07:26:11 51°14.358 2°55.065 310.2 11.7 305 9.3
2004-05-07 07:26:16 51°14.366 2°55.042 308.1 11.7 305 9.3
2004-05-07 07:26:21 51°14.375 2°55.019 307 12.3 300 9.3
2004-05-07 07:26:26 51°14.383 2°54.994 305.3 12.6 298 9.1
2004-05-07 07:26:30 51°14.39 2°54.974 303.7 12.8 297 9
2004-05-07 07:26:36 51°14.399 2°54.943 302.3 13.1 294 9
2004-05-07 07:26:41 51°14.406 2°54.916 300.8 13.2 293 9.1
2004-05-07 07:26:46 51°14.412 2°54.888 298.9 13.4 291 9
2004-05-07 07:26:50 51°14.418 2°54.866 298.3 13.5 290 9
2004-05-07 07:26:57 51°14.425 2°54.825 297.5 13.7 284 9
2004-05-07 07:27:01 51°14.428 2°54.801 293.3 13.8 280 9
2004-05-07 07:27:06 51°14.429 2°54.771 287.7 13.8 276 8.9
2004-05-07 07:27:10 51°14.429 2°54.746 281.8 14 270 8.8
2004-05-07 07:27:16 51°14.428 2°54.709 277.4 14 267 8.7
2004-05-07 07:27:21 51°14.427 2°54.678 274.3 14.1 266 8.9
2004-05-07 07:27:26 51°14.425 2°54.647 272.6 14.1 265 8.6
2004-05-07 07:27:30 51°14.423 2°54.622 271 14.2 263 8.7
2004-05-07 07:27:36 51°14.42 2°54.585 269.9 14.2 261 8.9
2004-05-07 07:27:41 51°14.416 2°54.554 266.3 14.3 258 8.9
2004-05-07 07:27:46 51°14.411 2°54.524 264.1 14.3 257 8.9
2004-05-07 07:27:51 51°14.405 2°54.493 261.3 14.3 254 8.7
2004-05-07 07:27:56 51°14.4 2°54.463 258.8 14.3 253 8.1
2004-05-07 07:28:01 51°14.393 2°54.433 257.6 14.2 252 8.1
2004-05-07 07:28:06 51°14.387 2°54.403 257 14.2 252 7.9
2004-05-07 07:28:10 51°14.382 2°54.38 256.7 14.1 251 7.8
2004-05-07 07:28:16 51°14.375 2°54.344 256.9 14.1 252 7.7
2004-05-07 07:28:21 51°14.369 2°54.315 256.9 14.1 252 5.7
2004-05-07 07:28:26 51°14.362 2°54.285 256.8 14.1 251 7.6
2004-05-07 07:28:30 51°14.357 2°54.262 256.2 14.1 251 7.6
2004-05-07 07:28:36 51°14.35 2°54.226 256.4 14.1 251 5.7
2004-05-07 07:28:41 51°14.343 2°54.197 256.8 14.1 251 7.5
2004-05-07 07:28:46 51°14.337 2°54.168 256.3 14.1 250 7.6
2004-05-07 07:28:51 51°14.329 2°54.139 254.2 14.1 246 7.5
2004-05-07 07:28:56 51°14.32 2°54.111 251.2 14.1 244 7.5
2004-05-07 07:29:01 51°14.311 2°54.084 248.6 14.1 242 5.6
2004-05-07 07:29:06 51°14.301 2°54.057 246.3 14.1 241 7.5
2004-05-07 07:29:11 51°14.291 2°54.03 244.3 14.1 239 7.5
2004-05-07 07:29:16 51°14.28 2°54.003 242.7 14.1 238 7.6
2004-05-07 07:29:21 51°14.27 2°53.977 241.6 14.1 237 7.5
2004-05-07 07:29:25 51°14.262 2°53.956 241.2 14.2 238 7.6
2004-05-07 07:29:30 51°14.251 2°53.929 241.4 14.2 238 7.5
2004-05-07 07:29:36 51°14.239 2°53.897 242.1 14.3 241 7.5
2004-05-07 07:29:41 51°14.231 2°53.868 244.5 14.3 244 7.5
2004-05-07 07:29:46 51°14.223 2°53.84 248.2 14.2 246 5.6
2004-05-07 07:29:50 51°14.217 2°53.816 251.7 14.2 248 5.6
2004-05-07 07:29:56 51°14.208 2°53.782 253 14.1 246 -999
2004-05-07 07:30:01 51°14.199 2°53.754 252.5 14.1 244 7.6
2004-05-07 07:30:06 51°14.189 2°53.727 249.2 14.1 240 7.6
2004-05-07 07:30:10 51°14.18 2°53.706 242.9 14.2 236 7.6
2004-05-07 07:30:16 51°14.166 2°53.676 239.1 14.3 233 7.6
2004-05-07 07:30:21 51°14.154 2°53.651 237.1 14.3 233 7.6
2004-05-07 07:30:26 51°14.141 2°53.626 235.6 14.2 231 7.7
2004-05-07 07:30:31 51°14.129 2°53.602 234.3 14.2 231 7.7
2004-05-07 07:30:36 51°14.117 2°53.577 233.9 14.2 232 7.7
2004-05-07 07:30:41 51°14.105 2°53.553 235.1 14.2 232 7.7
2004-05-07 07:30:46 51°14.093 2°53.527 236.2 14.2 233 5.7
2004-05-07 07:30:50 51°14.084 2°53.507 237 14.3 234 5.7
2004-05-07 07:30:56 51°14.07 2°53.476 238.1 14.3 235 5.7
2004-05-07 07:31:01 51°14.059 2°53.45 238.5 14.3 236 5.7
2004-05-07 07:31:06 51°14.048 2°53.424 239.4 14.3 235 7.7
2004-05-07 07:31:11 51°14.036 2°53.398 238.7 14.3 234 7.7
2004-05-07 07:31:16 51°14.024 2°53.373 237.3 14.3 233 7.7
2004-05-07 07:31:21 51°14.012 2°53.348 236.8 14.3 233 7.8
2004-05-07 07:31:26 51°14 2°53.323 236.5 14.4 232 7.8
2004-05-07 07:31:31 51°13.987 2°53.298 235.1 14.4 232 7.8
2004-05-07 07:31:36 51°13.975 2°53.273 234.4 14.4 232 7.8
2004-05-07 07:31:41 51°13.963 2°53.248 234.4 14.5 233 5.7
2004-05-07 07:31:46 51°13.951 2°53.222 235.8 14.5 234 5.7
2004-05-07 07:31:51 51°13.94 2°53.195 237.7 14.5 237 7.9
2004-05-07 07:31:56 51°13.929 2°53.168 240.2 14.5 238 7.8
2004-05-07 07:32:01 51°13.919 2°53.141 241.9 14.5 239 7.9
2004-05-07 07:32:06 51°13.908 2°53.114 242.6 14.5 238 7.9
2004-05-07 07:32:11 51°13.897 2°53.088 241.5 14.5 236 7.9
2004-05-07 07:32:16 51°13.884 2°53.062 239.4 14.4 233 5.8
2004-05-07 07:32:21 51°13.872 2°53.038 236.5 14.5 230 7.9
2004-05-07 07:32:25 51°13.861 2°53.018 233.6 14.5 229 7.9
2004-05-07 07:32:31 51°13.845 2°52.99 231.8 14.5 228 7.9
2004-05-07 07:32:35 51°13.834 2°52.971 230.8 14.5 229 7.9
2004-05-07 07:32:41 51°13.818 2°52.942 230.8 14.6 229 7.9
2004-05-07 07:32:46 51°13.806 2°52.916 232.4 14.6 232 8
2004-05-07 07:32:51 51°13.794 2°52.891 234.5 14.6 232 7.9
2004-05-07 07:32:56 51°13.782 2°52.864 236.8 14.6 234 8
2004-05-07 07:33:01 51°13.77 2°52.838 238 14.6 235 8
2004-05-07 07:33:06 51°13.759 2°52.811 238.7 14.6 236 8
2004-05-07 07:33:12 51°13.746 2°52.779 240.2 14.6 237 8.1
2004-05-07 07:33:16 51°13.737 2°52.757 241.5 14.6 238 8.1
2004-05-07 07:33:21 51°13.728 2°52.729 242.9 14.6 240 8.1
2004-05-07 07:33:26 51°13.718 2°52.701 244.3 14.5 240 8.1
2004-05-07 07:33:31 51°13.708 2°52.673 244.6 14.6 241 8.1
2004-05-07 07:33:36 51°13.697 2°52.645 245 14.7 240 8.2
2004-05-07 07:33:41 51°13.687 2°52.616 244.8 14.6 240 8.1
2004-05-07 07:33:46 51°13.677 2°52.589 244.3 14.7 239 8.1
2004-05-07 07:33:51 51°13.666 2°52.561 243.4 14.7 239 8.2
2004-05-07 07:33:56 51°13.655 2°52.533 243.1 14.7 238 8.2
2004-05-07 07:34:01 51°13.644 2°52.506 242 14.6 237 8.3
2004-05-07 07:34:06 51°13.633 2°52.48 240.8 14.7 236 8.2
2004-05-07 07:34:10 51°13.623 2°52.459 239.3 14.7 235 8.2
2004-05-07 07:34:16 51°13.609 2°52.427 238.4 14.7 234 8.2
2004-05-07 07:34:21 51°13.597 2°52.401 236.9 14.7 233 8.3
2004-05-07 07:34:26 51°13.585 2°52.375 236.8 14.6 234 8.2
2004-05-07 07:34:31 51°13.573 2°52.349 237.3 14.7 235 8.3
2004-05-07 07:34:36 51°13.562 2°52.322 238 14.7 236 8.3
2004-05-07 07:34:41 51°13.551 2°52.294 239.8 14.7 238 8.3
2004-05-07 07:34:46 51°13.541 2°52.266 242.7 14.7 241 8.3
2004-05-07 07:34:50 51°13.534 2°52.243 245.6 14.6 243 8.3
2004-05-07 07:34:56 51°13.523 2°52.208 247.5 14.6 244 8.3
2004-05-07 07:35:01 51°13.515 2°52.179 249 14.6 245 8.4
2004-05-07 07:35:06 51°13.506 2°52.15 249.5 14.5 245 8.4
2004-05-07 07:35:10 51°13.499 2°52.127 249.5 14.6 244 8.4
2004-05-07 07:35:15 51°13.49 2°52.098 248.9 14.6 243 8.4
2004-05-07 07:35:21 51°13.479 2°52.063 248.1 14.7 242 8.5
2004-05-07 07:35:26 51°13.469 2°52.035 246.7 14.6 241 8.4
2004-05-07 07:35:30 51°13.461 2°52.013 245.2 14.6 240 8.5
2004-05-07 07:35:36 51°13.448 2°51.98 243.9 14.6 238 8.4
2004-05-07 07:35:41 51°13.437 2°51.953 242.4 14.6 238 8.5
2004-05-07 07:35:46 51°13.426 2°51.925 241.6 14.6 237 8.5
2004-05-07 07:35:51 51°13.415 2°51.898 241.3 14.6 237 8.5
2004-05-07 07:35:56 51°13.405 2°51.871 241.3 14.6 238 8.5
2004-05-07 07:36:01 51°13.394 2°51.843 242 14.6 239 8.4
2004-05-07 07:36:06 51°13.384 2°51.815 243.3 14.7 241 8.4
2004-05-07 07:36:11 51°13.375 2°51.786 245.3 14.6 242 8.4
2004-05-07 07:36:16 51°13.365 2°51.758 246.4 14.6 242 8.4
2004-05-07 07:36:21 51°13.356 2°51.729 247.2 14.6 243 8.4
2004-05-07 07:36:26 51°13.347 2°51.7 247.7 14.6 243 8.4
2004-05-07 07:36:31 51°13.338 2°51.671 247.9 14.6 244 8.5
2004-05-07 07:36:36 51°13.329 2°51.643 248.2 14.6 243 8.4
2004-05-07 07:36:41 51°13.32 2°51.614 248.2 14.6 243 8.4
2004-05-07 07:36:46 51°13.31 2°51.585 247.5 14.7 242 8.4
2004-05-07 07:36:50 51°13.302 2°51.563 246.7 14.7 241 8.5
2004-05-07 07:36:56 51°13.29 2°51.529 245.5 14.7 240 8.4
2004-05-07 07:37:01 51°13.28 2°51.501 244.4 14.7 239 8.4
2004-05-07 07:37:06 51°13.269 2°51.473 243.7 14.7 239 8.4
2004-05-07 07:37:10 51°13.261 2°51.451 243.1 14.7 239 8.4
2004-05-07 07:37:16 51°13.248 2°51.417 242.9 14.7 239 8.5
2004-05-07 07:37:21 51°13.238 2°51.39 242.7 14.7 239 8.4
2004-05-07 07:37:26 51°13.228 2°51.361 243.8 14.8 240 8.4
2004-05-07 07:37:30 51°13.22 2°51.338 245.3 14.7 242 8.4
2004-05-07 07:37:36 51°13.209 2°51.303 246.8 14.7 243 8.4
2004-05-07 07:37:41 51°13.2 2°51.274 247.6 14.7 244 8.4
2004-05-07 07:37:46 51°13.191 2°51.245 248.4 14.7 244 8.5
2004-05-07 07:37:50 51°13.184 2°51.221 249.1 14.7 245 8.5
2004-05-07 07:37:56 51°13.174 2°51.186 249.7 14.7 245 8.5
2004-05-07 07:38:01 51°13.164 2°51.157 249.2 14.8 243 8.5
2004-05-07 07:38:06 51°13.155 2°51.128 248.2 14.8 242 8.6
2004-05-07 07:38:10 51°13.147 2°51.105 246.7 14.8 242 8.6
2004-05-07 07:38:16 51°13.134 2°51.072 245 14.8 240 8.6
2004-05-07 07:38:21 51°13.124 2°51.044 243.3 14.8 238 8.6
2004-05-07 07:38:26 51°13.112 2°51.017 241.7 14.8 237 8.6
2004-05-07 07:38:30 51°13.103 2°50.996 239.6 14.7 235 8.6
2004-05-07 07:38:36 51°13.088 2°50.964 238.2 14.8 234 8.6
2004-05-07 07:38:41 51°13.076 2°50.938 237.3 14.8 233 8.6
2004-05-07 07:38:46 51°13.064 2°50.911 237 14.8 234 8.6
2004-05-07 07:38:50 51°13.054 2°50.89 237.3 14.7 234 8.6
2004-05-07 07:38:56 51°13.041 2°50.858 238.2 14.8 236 8.6
2004-05-07 07:39:01 51°13.029 2°50.83 239.5 14.8 237 8.6
2004-05-07 07:39:06 51°13.018 2°50.803 240.7 14.8 237 8.6
2004-05-07 07:39:11 51°13.008 2°50.775 241.9 14.7 238 8.6
2004-05-07 07:39:16 51°12.997 2°50.747 242.7 14.7 238 8.6
2004-05-07 07:39:21 51°12.987 2°50.72 242.7 14.7 239 8.5
2004-05-07 07:39:25 51°12.978 2°50.698 242.6 14.7 238 8.5
2004-05-07 07:39:31 51°12.965 2°50.665 241.9 14.8 238 8.5
2004-05-07 07:39:35 51°12.955 2°50.643 241 14.7 236 8.6
2004-05-07 07:39:41 51°12.942 2°50.611 239.5 14.7 235 8.5
2004-05-07 07:39:46 51°12.93 2°50.585 237.8 14.7 234 8.5
2004-05-07 07:39:50 51°12.92 2°50.564 237 14.7 234 8.5
2004-05-07 07:39:56 51°12.905 2°50.533 237.1 14.7 234 8.5
2004-05-07 07:40:01 51°12.894 2°50.506 237.5 14.7 235 8.5
2004-05-07 07:40:06 51°12.883 2°50.479 238.7 14.6 236 8.5
2004-05-07 07:40:11 51°12.872 2°50.452 239.9 14.6 237 8.5
2004-05-07 07:40:16 51°12.861 2°50.424 241.3 14.7 238 8.5
2004-05-07 07:40:21 51°12.851 2°50.396 242.8 14.7 240 8.5
2004-05-07 07:40:26 51°12.84 2°50.369 243.6 14.6 239 8.5
2004-05-07 07:40:31 51°12.83 2°50.341 243.6 14.6 239 8.5
2004-05-07 07:40:36 51°12.819 2°50.313 243 14.7 237 8.4
2004-05-07 07:40:41 51°12.808 2°50.286 242 14.7 238 8.4
2004-05-07 07:40:46 51°12.797 2°50.26 240.9 14.5 236 8.4
2004-05-07 07:40:51 51°12.785 2°50.233 239.1 14.6 235 8.4
2004-05-07 07:40:56 51°12.773 2°50.207 238.3 14.6 235 8.4
2004-05-07 07:41:01 51°12.761 2°50.181 237.4 14.7 233 8.4
2004-05-07 07:41:06 51°12.749 2°50.155 237.1 14.6 234 8.4
2004-05-07 07:41:10 51°12.74 2°50.134 237.2 14.5 234 8.4
2004-05-07 07:41:16 51°12.726 2°50.103 237.2 14.6 234 8.4
2004-05-07 07:41:21 51°12.714 2°50.076 237.9 14.6 235 8.3
2004-05-07 07:41:26 51°12.703 2°50.05 239 14.6 236 8.3
2004-05-07 07:41:30 51°12.694 2°50.028 240.3 14.5 237 8.3
2004-05-07 07:41:36 51°12.682 2°49.995 241.6 14.5 239 8.2
2004-05-07 07:41:41 51°12.671 2°49.968 242.3 14.5 239 8.2
2004-05-07 07:41:46 51°12.661 2°49.94 243.1 14.5 240 8.3
2004-05-07 07:41:51 51°12.651 2°49.912 244.1 14.5 240 8.3
2004-05-07 07:41:56 51°12.641 2°49.885 244.2 14.5 240 8.3
2004-05-07 07:42:01 51°12.63 2°49.858 243.1 14.5 238 8.3
2004-05-07 07:42:06 51°12.619 2°49.831 241.5 14.5 237 8.2
2004-05-07 07:42:10 51°12.61 2°49.81 240.3 14.5 235 8.2
2004-05-07 07:42:16 51°12.595 2°49.779 238.7 14.5 234 8.2
2004-05-07 07:42:21 51°12.583 2°49.753 237.3 14.5 233 8.2
2004-05-07 07:42:26 51°12.571 2°49.728 236.6 14.5 233 8.2
2004-05-07 07:42:30 51°12.561 2°49.708 236 14.5 233 8.2
2004-05-07 07:42:36 51°12.547 2°49.677 235.8 14.4 233 8.2
2004-05-07 07:42:41 51°12.535 2°49.652 236 14.4 233 8.1
2004-05-07 07:42:46 51°12.523 2°49.626 236.4 14.5 235 8.1
2004-05-07 07:42:50 51°12.515 2°49.604 238.6 14.5 239 8.1
2004-05-07 07:42:56 51°12.503 2°49.571 241.7 14.4 240 8.1
2004-05-07 07:43:01 51°12.494 2°49.542 244.8 14.3 243 8.1
2004-05-07 07:43:06 51°12.485 2°49.514 246.8 14.3 244 8.1
2004-05-07 07:43:10 51°12.478 2°49.491 248.2 14.4 244 8.1
2004-05-07 07:43:16 51°12.468 2°49.457 249.5 14.4 245 8.1
2004-05-07 07:43:21 51°12.46 2°49.428 249.7 14.3 244 8.2
2004-05-07 07:43:26 51°12.451 2°49.4 249 14.4 244 8.2
2004-05-07 07:43:30 51°12.444 2°49.377 248.2 14.4 243 8.2
2004-05-07 07:43:36 51°12.432 2°49.343 247.5 14.5 241 8.2
2004-05-07 07:43:41 51°12.422 2°49.315 246 14.5 240 8.2
2004-05-07 07:43:46 51°12.412 2°49.288 244.2 14.5 239 8.2
2004-05-07 07:43:50 51°12.403 2°49.266 242.9 14.5 238 8.2
2004-05-07 07:43:56 51°12.39 2°49.234 241.1 14.5 237 8.2
2004-05-07 07:44:01 51°12.379 2°49.208 240.5 14.4 236 8.2
2004-05-07 07:44:06 51°12.368 2°49.181 239.8 14.4 237 8.2
2004-05-07 07:44:10 51°12.359 2°49.16 239.9 14.4 236 8.1
2004-05-07 07:44:16 51°12.346 2°49.128 239.7 14.5 237 8.1
2004-05-07 07:44:21 51°12.336 2°49.1 241.5 14.5 239 8.1
2004-05-07 07:44:26 51°12.326 2°49.072 243.1 14.5 241 8.1
2004-05-07 07:44:30 51°12.318 2°49.05 245.1 14.4 243 8.2
2004-05-07 07:44:36 51°12.308 2°49.016 246.8 14.4 244 8.1
2004-05-07 07:44:41 51°12.3 2°48.987 248.9 14.4 245 8.2
2004-05-07 07:44:46 51°12.291 2°48.958 249.6 14.4 245 8.2
2004-05-07 07:44:50 51°12.284 2°48.935 249.6 14.4 244 8.2
2004-05-07 07:44:56 51°12.274 2°48.901 249.3 14.4 244 8.2
2004-05-07 07:45:01 51°12.264 2°48.873 248.5 14.4 242 8.2
2004-05-07 07:45:06 51°12.255 2°48.845 246.7 14.4 241 8.2
2004-05-07 07:45:11 51°12.244 2°48.818 244.4 14.5 239 8.2
2004-05-07 07:45:16 51°12.234 2°48.79 243.2 14.5 238 8.2
2004-05-07 07:45:21 51°12.223 2°48.764 242.3 14.5 237 8.2
2004-05-07 07:45:26 51°12.212 2°48.737 241.2 14.4 237 8.2
2004-05-07 07:45:30 51°12.203 2°48.716 240.4 14.4 236 8.2
2004-05-07 07:45:36 51°12.19 2°48.684 240.2 14.4 237 8.2
2004-05-07 07:45:41 51°12.179 2°48.657 240.9 14.4 238 8.2
2004-05-07 07:45:46 51°12.169 2°48.629 241.7 14.4 239 8.2
2004-05-07 07:45:51 51°12.159 2°48.602 243.4 14.4 241 8.2
2004-05-07 07:45:56 51°12.15 2°48.573 244.8 14.4 242 8.2
2004-05-07 07:46:01 51°12.141 2°48.545 246.9 14.4 244 8.2
2004-05-07 07:46:06 51°12.133 2°48.516 248.1 14.4 244 8.2
2004-05-07 07:46:11 51°12.125 2°48.488 249 14.3 245 8.2
2004-05-07 07:46:16 51°12.116 2°48.459 249.6 14.3 245 8.2
2004-05-07 07:46:21 51°12.107 2°48.43 249.4 14.4 244 8.3
2004-05-07 07:46:26 51°12.098 2°48.402 249 14.4 244 8.3
2004-05-07 07:46:30 51°12.091 2°48.379 248.3 14.4 243 8.3
2004-05-07 07:46:36 51°12.079 2°48.346 246.9 14.4 242 8.2
2004-05-07 07:46:41 51°12.069 2°48.319 244.3 14.4 239 8.2
2004-05-07 07:46:46 51°12.058 2°48.292 243.1 14.4 238 8.2
2004-05-07 07:46:50 51°12.05 2°48.271 241.3 14.4 237 8.2
2004-05-07 07:46:56 51°12.036 2°48.239 240.6 14.4 236 8.2
2004-05-07 07:47:01 51°12.025 2°48.213 240 14.3 236 8.1
2004-05-07 07:47:06 51°12.014 2°48.186 239.9 14.3 236 8.1
2004-05-07 07:47:11 51°12.003 2°48.16 240.2 14.3 237 8.1
2004-05-07 07:47:16 51°11.993 2°48.133 241 14.4 239 8.1
2004-05-07 07:47:21 51°11.983 2°48.106 242.4 14.4 239 8.1
2004-05-07 07:47:25 51°11.975 2°48.084 243.4 14.3 240 8.1
2004-05-07 07:47:30 51°11.966 2°48.056 245.2 14.3 242 8
2004-05-07 07:47:36 51°11.955 2°48.022 246.2 14.3 243 8
2004-05-07 07:47:41 51°11.947 2°47.994 247.5 14.3 244 8
2004-05-07 07:47:46 51°11.938 2°47.966 248.6 14.3 244 8
2004-05-07 07:47:51 51°11.929 2°47.937 248.8 14.2 244 8
2004-05-07 07:47:56 51°11.921 2°47.909 248.9 14.2 244 8
2004-05-07 07:48:01 51°11.912 2°47.881 249 14.3 244 8
2004-05-07 07:48:06 51°11.903 2°47.852 248.6 14.3 243 8
2004-05-07 07:48:11 51°11.894 2°47.825 247.6 14.3 242 8
2004-05-07 07:48:14 51°11.888 2°47.808 246.6 14.2 240 8
2004-05-07 07:48:21 51°11.874 2°47.77 244.9 14.2 239 7.9
2004-05-07 07:48:26 51°11.864 2°47.745 242.9 13.6 237 5.8
2004-05-07 07:48:31 51°11.853 2°47.722 240.1 12.9 234 5.6
2004-05-07 07:48:36 51°11.842 2°47.7 237.7 12.8 232 7.7
2004-05-07 07:48:41 51°11.831 2°47.68 234.3 12.3 229 7.7
2004-05-07 07:48:46 51°11.82 2°47.66 231.4 11.8 229 7.8
2004-05-07 07:48:51 51°11.812 2°47.64 233.3 10.9 235 7.9
2004-05-07 07:48:56 51°11.805 2°47.62 239.5 10.1 242 8
2004-05-07 07:49:01 51°11.799 2°47.601 245.4 9.6 243 8.1
2004-05-07 07:49:06 51°11.794 2°47.583 248.9 9.2 245 8.1
2004-05-07 07:49:12 51°11.789 2°47.562 252.4 8.4 249 8.1
2004-05-07 07:49:16 51°11.786 2°47.55 255.7 8.1 250 8.1
2004-05-07 07:49:21 51°11.784 2°47.535 260.4 6.8 254 8.1
2004-05-07 07:49:26 51°11.781 2°47.522 262.7 6.3 254 8.1
2004-05-07 07:49:30 51°11.779 2°47.513 263.1 5.7 253 8.1
2004-05-07 07:49:36 51°11.777 2°47.5 262 5.7 253 8.1
2004-05-07 07:49:41 51°11.775 2°47.492 258.5 4.2 248 8.1
2004-05-07 07:49:46 51°11.772 2°47.485 253.3 3.5 242 8.1
2004-05-07 07:49:50 51°11.771 2°47.481 248.8 2.7 242 8.1
2004-05-07 07:49:56 51°11.769 2°47.476 245.8 2.5 242 8.1
2004-05-07 07:50:01 51°11.768 2°47.473 243.2 1.5 239 8.1
2004-05-07 07:50:06 51°11.767 2°47.472 240.9 1.1 235 8.1
2004-05-07 07:50:10 51°11.766 2°47.471 238.8 0.5 232 8.1
2004-05-07 07:50:16 51°11.766 2°47.47 236.8 0.1 280 8.1
2004-05-07 07:50:21 51°11.767 2°47.471 234.5 0.2 29 8.1
2004-05-07 07:50:26 51°11.767 2°47.471 232.1 0.3 20 -999
2004-05-07 07:50:32 51°11.767 2°47.471 229.9 0.2 19 -999
2004-05-07 07:50:37 51°11.768 2°47.471 227.5 0.2 4 -999
2004-05-07 07:50:42 51°11.768 2°47.471 225.8 0.2 337 -999
2004-05-07 07:50:46 51°11.768 2°47.471 223.8 0.2 323 -999
2004-05-07 07:50:52 51°11.768 2°47.47 222 0.2 308 -999
2004-05-07 07:50:57 51°11.769 2°47.469 220.7 0.3 300 -999
2004-05-07 07:51:02 51°11.769 2°47.469 219.9 0.4 293 -999
2004-05-07 07:51:07 51°11.769 2°47.468 219.4 0.4 290 -999
2004-05-07 07:51:12 51°11.769 2°47.467 219.4 0.4 289 -999
2004-05-07 07:51:17 51°11.769 2°47.466 219.4 0.4 287 -999
2004-05-07 07:51:22 51°11.77 2°47.465 219.6 0.4 282 -999
2004-05-07 07:51:26 51°11.77 2°47.464 219.9 0.4 281 -999
2004-05-07 07:51:32 51°11.77 2°47.463 219.9 0.4 274 -999
2004-05-07 07:51:37 51°11.77 2°47.463 220 0.4 271 -999
2004-05-07 07:51:41 51°11.77 2°47.462 220 0.4 267 7.4
2004-05-07 07:51:46 51°11.77 2°47.461 219.9 0.4 267 5.8
2004-05-07 07:51:51 51°11.769 2°47.461 219.9 0.4 265 8.1
2004-05-07 07:51:56 51°11.769 2°47.46 219.7 0.3 258 5.4
2004-05-07 07:52:01 51°11.769 2°47.459 219.4 0.4 261 -999
2004-05-07 07:52:06 51°11.769 2°47.459 219 0.3 253 -999
2004-05-07 07:52:12 51°11.769 2°47.458 218.6 0.4 256 -999
2004-05-07 07:52:16 51°11.769 2°47.457 218.4 0.4 253 8.2
2004-05-07 07:52:21 51°11.769 2°47.456 217.9 0.4 248 8
2004-05-07 07:52:25 51°11.769 2°47.456 217.7 0.4 252 8.1
2004-05-07 07:52:30 51°11.768 2°47.455 217.3 0.4 256 8.1
2004-05-07 07:52:37 51°11.768 2°47.454 216.9 0.4 258 -999
2004-05-07 07:52:41 51°11.768 2°47.453 216.3 0.4 247 8.2
2004-05-07 07:52:46 51°11.768 2°47.452 215.9 0.4 255 8.1
2004-05-07 07:52:50 51°11.768 2°47.452 215.5 0.4 244 8.1
2004-05-07 07:52:56 51°11.767 2°47.451 215.2 0.4 251 8.1
2004-05-07 07:53:01 51°11.767 2°47.45 214.8 0.4 242 8.1
2004-05-07 07:53:05 51°11.767 2°47.449 214.3 0.5 255 8.1
2004-05-07 07:53:10 51°11.767 2°47.448 213.8 0.4 245 8.1
2004-05-07 07:53:16 51°11.767 2°47.446 213.3 0.5 249 8.1
2004-05-07 07:53:21 51°11.766 2°47.446 212.8 0.4 238 8.1
2004-05-07 07:53:25 51°11.766 2°47.445 212 0.5 250 8.1
2004-05-07 07:53:31 51°11.766 2°47.445 211.7 0.4 235 8.1
2004-05-07 07:53:36 51°11.765 2°47.444 210.8 0.5 243 8.1
2004-05-07 07:53:41 51°11.765 2°47.443 210.4 0.5 235 8.2
2004-05-07 07:53:46 51°11.765 2°47.442 209.4 0.5 246 8.1
2004-05-07 07:53:51 51°11.764 2°47.441 208.7 0.5 237 8.1
2004-05-07 07:53:56 51°11.764 2°47.44 207.8 0.5 243 8.1
2004-05-07 07:54:01 51°11.763 2°47.439 207.1 0.5 240 8.1
2004-05-07 07:54:06 51°11.763 2°47.438 206.2 0.5 241 8.1
2004-05-07 07:54:10 51°11.763 2°47.437 205.6 0.5 242 8
2004-05-07 07:54:16 51°11.762 2°47.436 204.7 0.5 243 8
2004-05-07 07:54:21 51°11.762 2°47.435 203.9 0.6 243 8.1
2004-05-07 07:54:25 51°11.761 2°47.434 202.9 0.6 240 8.1
2004-05-07 07:54:31 51°11.761 2°47.432 202.3 0.6 241 8.1
2004-05-07 07:54:34 51°11.761 2°47.431 201.5 0.6 240 8.1
2004-05-07 07:54:41 51°11.761 2°47.429 200.8 0.6 240 8.1
2004-05-07 07:54:45 51°11.76 2°47.429 200.2 0.6 237 8.1
2004-05-07 07:54:50 51°11.76 2°47.427 199.5 0.6 238 8.1
2004-05-07 07:54:56 51°11.759 2°47.426 198.8 0.6 240 8.1
2004-05-07 07:55:01 51°11.759 2°47.425 198.2 0.7 238 8.1
2004-05-07 07:55:06 51°11.758 2°47.423 197.7 0.7 238 8.1
2004-05-07 07:55:10 51°11.758 2°47.423 197 0.7 238 8.1
2004-05-07 07:55:16 51°11.757 2°47.421 196.5 0.7 236 8.1
2004-05-07 07:55:21 51°11.757 2°47.42 195.9 0.7 236 8.1
2004-05-07 07:55:26 51°11.756 2°47.419 195.2 0.7 234 8.1
2004-05-07 07:55:31 51°11.755 2°47.417 194.6 0.7 237 8.1
2004-05-07 07:55:36 51°11.755 2°47.416 193.9 0.8 236 8.1
2004-05-07 07:55:41 51°11.754 2°47.415 193.4 0.7 233 8.1
2004-05-07 07:55:46 51°11.754 2°47.414 192.7 0.7 235 8.1
2004-05-07 07:55:51 51°11.753 2°47.412 192.1 0.7 233 8.1
2004-05-07 07:55:56 51°11.752 2°47.411 191.7 0.7 232 8.1
2004-05-07 07:56:01 51°11.752 2°47.41 191.1 0.7 232 8.1
2004-05-07 07:56:06 51°11.751 2°47.409 190.5 0.8 230 8.1
2004-05-07 07:56:10 51°11.75 2°47.408 189.9 0.8 231 8.1
2004-05-07 07:56:14 51°11.75 2°47.407 189.3 0.8 229 8
2004-05-07 07:56:21 51°11.749 2°47.405 188.6 0.8 230 8.1
2004-05-07 07:56:26 51°11.748 2°47.404 187.9 0.7 225 8.1
2004-05-07 07:56:30 51°11.748 2°47.403 187.5 0.8 230 8.1
2004-05-07 07:56:37 51°11.746 2°47.401 186.9 0.8 227 8.1
2004-05-07 07:56:41 51°11.746 2°47.4 186.4 0.8 228 8
2004-05-07 07:56:46 51°11.745 2°47.399 185.8 0.8 223 8
2004-05-07 07:56:50 51°11.745 2°47.398 185.4 0.9 228 8.1
2004-05-07 07:56:56 51°11.744 2°47.396 185 0.8 228 8
2004-05-07 07:57:01 51°11.743 2°47.395 184.6 0.8 225 8
2004-05-07 07:57:05 51°11.742 2°47.394 184.1 0.8 222 8
2004-05-07 07:57:10 51°11.742 2°47.392 183.4 0.8 227 8
2004-05-07 07:57:16 51°11.741 2°47.391 183 0.9 225 8
2004-05-07 07:57:21 51°11.74 2°47.389 182.4 0.8 222 8
2004-05-07 07:57:26 51°11.739 2°47.388 181.7 0.8 220 8
2004-05-07 07:57:31 51°11.738 2°47.387 181.3 0.9 224 8
2004-05-07 07:57:36 51°11.737 2°47.385 180.9 0.8 221 8
2004-05-07 07:57:41 51°11.736 2°47.384 180.4 0.9 223 8
2004-05-07 07:57:46 51°11.736 2°47.383 179.9 0.8 218 8
2004-05-07 07:57:51 51°11.735 2°47.382 179.4 0.9 223 8
2004-05-07 07:57:56 51°11.734 2°47.381 179 0.9 221 8
2004-05-07 07:58:01 51°11.733 2°47.379 178.5 0.9 220 8
2004-05-07 07:58:06 51°11.732 2°47.378 178.1 0.9 218 7.9
2004-05-07 07:58:11 51°11.731 2°47.377 177.8 0.9 220 8
2004-05-07 07:58:16 51°11.73 2°47.376 177.4 0.9 217 8
2004-05-07 07:58:21 51°11.729 2°47.375 177 0.9 218 8
2004-05-07 07:58:26 51°11.727 2°47.373 176.6 0.9 216 8
2004-05-07 07:58:30 51°11.727 2°47.372 176.5 0.9 219 7.9
2004-05-07 07:58:36 51°11.726 2°47.371 176.2 1 217 7.9
2004-05-07 07:58:41 51°11.724 2°47.37 175.8 0.9 218 7.9
2004-05-07 07:58:46 51°11.723 2°47.368 175.5 0.9 214 7.9
2004-05-07 07:58:50 51°11.722 2°47.367 175.1 0.9 214 7.9
2004-05-07 07:58:56 51°11.721 2°47.366 174.9 1 217 7.9
2004-05-07 07:59:01 51°11.72 2°47.365 174.5 0.9 214 7.9
2004-05-07 07:59:06 51°11.719 2°47.364 174.1 0.9 214 7.9
2004-05-07 07:59:10 51°11.718 2°47.363 174 1 215 7.9
2004-05-07 07:59:16 51°11.717 2°47.361 173.5 1 214 7.8
2004-05-07 07:59:21 51°11.716 2°47.36 173.2 0.9 211 7.8
2004-05-07 07:59:26 51°11.715 2°47.359 172.9 1 213 7.8
2004-05-07 07:59:31 51°11.714 2°47.358 172.7 1 213 7.8
2004-05-07 07:59:36 51°11.712 2°47.357 172.6 1 213 7.8
2004-05-07 07:59:41 51°11.711 2°47.356 172.5 1 210 5.7
2004-05-07 07:59:46 51°11.71 2°47.355 172.3 1 211 7.8
2004-05-07 07:59:50 51°11.709 2°47.354 172.2 1 210 7.8
2004-05-07 07:59:56 51°11.708 2°47.352 172.2 1 211 7.8
2004-05-07 08:00:01 51°11.706 2°47.351 172.1 1 210 5.8
2004-05-07 08:00:06 51°11.705 2°47.35 172.1 1 210 7.7
2004-05-07 08:00:10 51°11.704 2°47.349 172.1 1 210 5.7
2004-05-07 08:00:16 51°11.703 2°47.348 172.2 1.1 211 7.7
2004-05-07 08:00:21 51°11.701 2°47.347 172.2 1 209 7.7
2004-05-07 08:00:26 51°11.7 2°47.346 172.2 1.1 210 7.7
2004-05-07 08:00:31 51°11.698 2°47.345 172.2 1.2 206 7.7
2004-05-07 08:00:36 51°11.696 2°47.343 172.2 1.6 196 7.7
2004-05-07 08:00:41 51°11.694 2°47.342 173 2 196 7.7
2004-05-07 08:00:45 51°11.691 2°47.341 175.3 2.4 194 7.7
2004-05-07 08:00:50 51°11.687 2°47.339 179.6 2.9 195 7.6
2004-05-07 08:00:56 51°11.681 2°47.336 186 3.9 202 7.6
2004-05-07 08:01:01 51°11.676 2°47.332 195.2 4.4 207 7.5
2004-05-07 08:01:06 51°11.67 2°47.326 201.8 4.7 212 7.5
2004-05-07 08:01:10 51°11.666 2°47.321 209.9 4.9 216 7.4
2004-05-07 08:01:16 51°11.66 2°47.311 217.8 5.1 226 7.4
2004-05-07 08:01:21 51°11.655 2°47.302 226.4 5.3 231 7.4
2004-05-07 08:01:26 51°11.65 2°47.292 231.9 5.7 235 7.3
2004-05-07 08:01:30 51°11.647 2°47.282 241 6 241 5.5
2004-05-07 08:01:37 51°11.643 2°47.262 248.3 6.8 253 -999
2004-05-07 08:01:41 51°11.642 2°47.25 257.6 6.8 260 7.3
2004-05-07 08:01:45 51°11.642 2°47.239 269 6.5 266 7.3
2004-05-07 08:01:50 51°11.642 2°47.225 276.4 6.3 270 7.4
2004-05-07 08:01:56 51°11.643 2°47.209 281.2 5.9 278 7.4
2004-05-07 08:02:01 51°11.644 2°47.197 287 5.7 280 7.5
2004-05-07 08:02:06 51°11.646 2°47.185 292.7 5.5 285 7.6
2004-05-07 08:02:10 51°11.648 2°47.177 299.4 5.3 288 5.7
2004-05-07 08:02:16 51°11.652 2°47.164 305.1 5 296 7.7
2004-05-07 08:02:21 51°11.655 2°47.155 311 4.9 298 7.7
2004-05-07 08:02:26 51°11.659 2°47.146 316.6 4.7 304 7.8
2004-05-07 08:02:31 51°11.663 2°47.139 322.2 4.6 306 7.9
2004-05-07 08:02:36 51°11.667 2°47.132 327.7 4.3 316 7.9
2004-05-07 08:02:41 51°11.672 2°47.126 333.4 4.2 319 8
2004-05-07 08:02:46 51°11.676 2°47.121 339.3 4.1 325 8.1
2004-05-07 08:02:50 51°11.681 2°47.117 343.9 4.4 332 8.1
2004-05-07 08:02:56 51°11.688 2°47.114 350.6 4.5 347 8.2
2004-05-07 08:03:01 51°11.694 2°47.112 0.6 4.7 352 8.3
2004-05-07 08:03:06 51°11.701 2°47.113 9.4 4.9 2 8.3
2004-05-07 08:03:11 51°11.708 2°47.115 19.2 4.8 13 8.3
2004-05-07 08:03:16 51°11.713 2°47.12 28.4 4.3 26 8.4
2004-05-07 08:03:21 51°11.718 2°47.124 35.9 4.2 28 8.4
2004-05-07 08:03:26 51°11.723 2°47.129 41.9 4.1 35 8.5
2004-05-07 08:03:30 51°11.726 2°47.133 45.6 4 38 8.6
2004-05-07 08:03:36 51°11.731 2°47.14 48 3.9 41 8.6
2004-05-07 08:03:41 51°11.735 2°47.146 49.6 3.9 40 8.7
2004-05-07 08:03:46 51°11.739 2°47.151 50.3 3.9 43 8.7
2004-05-07 08:03:50 51°11.742 2°47.156 51.2 3.9 42 8.6
2004-05-07 08:03:56 51°11.747 2°47.163 51.5 3.9 44 8.7
2004-05-07 08:04:01 51°11.751 2°47.169 51.7 3.9 43 8.7
2004-05-07 08:04:06 51°11.755 2°47.175 52 3.9 43 8.7
2004-05-07 08:04:11 51°11.759 2°47.181 52.2 3.8 44 8.8
2004-05-07 08:04:16 51°11.762 2°47.187 52.3 3.7 45 8.8
2004-05-07 08:04:21 51°11.766 2°47.193 52.5 3.7 45 8.8
2004-05-07 08:04:26 51°11.769 2°47.199 53.1 3.7 47 8.8
2004-05-07 08:04:31 51°11.773 2°47.205 54 3.6 47 8.9
2004-05-07 08:04:33 51°11.774 2°47.207 54.8 3.6 50 8.9
2004-05-07 08:04:41 51°11.779 2°47.217 56.2 3.6 50 8.9
2004-05-07 08:04:46 51°11.782 2°47.223 57.3 3.5 53 8.9
2004-05-07 08:04:50 51°11.784 2°47.228 58.7 3.5 54 8.9
2004-05-07 08:04:56 51°11.787 2°47.236 60.3 3.4 57 8.9
2004-05-07 08:05:01 51°11.79 2°47.242 61.5 3.4 57 8.9
2004-05-07 08:05:06 51°11.792 2°47.249 62.4 3.4 59 8.9
2004-05-07 08:05:11 51°11.795 2°47.255 63 3.4 60 8.9
2004-05-07 08:05:16 51°11.797 2°47.262 63.7 3.4 61 8.9
2004-05-07 08:05:21 51°11.799 2°47.268 64 3.4 60 8.9
2004-05-07 08:05:26 51°11.802 2°47.275 64.3 3.4 62 8.9
2004-05-07 08:05:30 51°11.803 2°47.28 64.5 3.4 61 8.9
2004-05-07 08:05:36 51°11.806 2°47.288 64.5 3.4 64 9
2004-05-07 08:05:41 51°11.808 2°47.295 64.6 3.4 62 9
2004-05-07 08:05:46 51°11.81 2°47.302 65.3 3.4 64 9
2004-05-07 08:05:51 51°11.812 2°47.308 66.5 3.4 64 9
2004-05-07 08:05:56 51°11.814 2°47.315 67.3 3.3 67 9
2004-05-07 08:06:01 51°11.816 2°47.322 68.9 3.4 67 9
2004-05-07 08:06:06 51°11.818 2°47.329 70 3.4 70 8.9
2004-05-07 08:06:10 51°11.819 2°47.335 71.3 3.3 71 9
2004-05-07 08:06:16 51°11.821 2°47.343 72.5 3.4 72 9
2004-05-07 08:06:21 51°11.822 2°47.35 74.4 3.3 75 9
2004-05-07 08:06:26 51°11.823 2°47.357 76.1 3.4 77 8.9
2004-05-07 08:06:30 51°11.823 2°47.363 77.3 3.3 79 9
2004-05-07 08:06:36 51°11.824 2°47.372 78.5 3.3 80 9
2004-05-07 08:06:41 51°11.825 2°47.379 78.9 3.3 80 8.9
2004-05-07 08:06:46 51°11.825 2°47.386 79.2 3.3 82 8.9
2004-05-07 08:06:50 51°11.826 2°47.392 79.3 3.3 79 8.9
2004-05-07 08:06:56 51°11.826 2°47.4 78.9 3.3 80 8.9
2004-05-07 08:07:01 51°11.828 2°47.407 78.2 3.3 78 8.9
2004-05-07 08:07:06 51°11.828 2°47.415 77.6 3.3 81 8.8
2004-05-07 08:07:10 51°11.829 2°47.42 76.7 3.3 76 8.8
2004-05-07 08:07:17 51°11.831 2°47.43 76.2 3.2 76 8.8
2004-05-07 08:07:21 51°11.831 2°47.436 75.5 3.3 75 8.8
2004-05-07 08:07:26 51°11.832 2°47.443 75.1 3.3 78 8.8
2004-05-07 08:07:31 51°11.834 2°47.45 74.4 3.2 73 8.8
2004-05-07 08:07:36 51°11.835 2°47.457 74 3.2 75 8.8
2004-05-07 08:07:41 51°11.836 2°47.463 73.6 3.3 73 8.8
2004-05-07 08:07:46 51°11.838 2°47.471 73.3 3.3 75 8.8
2004-05-07 08:07:50 51°11.839 2°47.476 73.1 3.3 72 8.8
2004-05-07 08:07:56 51°11.841 2°47.485 72.7 3.4 74 8.8
2004-05-07 08:08:01 51°11.842 2°47.493 72.8 3.5 72 8.8
2004-05-07 08:08:06 51°11.844 2°47.5 72.6 3.5 74 8.8
2004-05-07 08:08:10 51°11.845 2°47.507 72.6 3.6 72 8.8
2004-05-07 08:08:16 51°11.847 2°47.516 72.6 3.6 73 8.7
2004-05-07 08:08:21 51°11.848 2°47.524 72.6 3.7 72 8.7
2004-05-07 08:08:26 51°11.85 2°47.532 72.8 3.7 73 8.7
2004-05-07 08:08:31 51°11.851 2°47.54 72.9 3.7 72 8.6
2004-05-07 08:08:36 51°11.853 2°47.547 73 3.7 73 8.7
2004-05-07 08:08:41 51°11.854 2°47.555 73.3 3.7 73 8.7
2004-05-07 08:08:46 51°11.856 2°47.563 73.3 3.7 75 8.7
2004-05-07 08:08:51 51°11.858 2°47.571 73.3 3.7 73 8.7
2004-05-07 08:08:56 51°11.859 2°47.579 73.5 3.7 74 8.7
2004-05-07 08:09:01 51°11.861 2°47.587 73.6 3.8 74 8.7
2004-05-07 08:09:06 51°11.862 2°47.595 73.5 3.7 74 8.6
2004-05-07 08:09:11 51°11.864 2°47.603 73.6 3.8 74 8.6
2004-05-07 08:09:16 51°11.865 2°47.611 73.6 3.8 73 8.6
2004-05-07 08:09:21 51°11.867 2°47.619 73.4 3.8 74 8.5
2004-05-07 08:09:26 51°11.868 2°47.627 73.6 3.8 73 8.6
2004-05-07 08:09:31 51°11.869 2°47.635 73.6 3.8 74 8.6
2004-05-07 08:09:36 51°11.871 2°47.643 73.7 3.8 74 8.6
2004-05-07 08:09:41 51°11.872 2°47.651 73.7 3.8 74 8.6
2004-05-07 08:09:46 51°11.873 2°47.659 73.9 3.8 73 8.6
2004-05-07 08:09:51 51°11.875 2°47.667 73.9 3.8 75 8.6
2004-05-07 08:09:56 51°11.876 2°47.675 73.9 3.8 74 8.6
2004-05-07 08:10:01 51°11.878 2°47.684 73.9 3.8 73 8.7
2004-05-07 08:10:06 51°11.879 2°47.692 73.6 3.8 73 8.6
2004-05-07 08:10:10 51°11.881 2°47.698 73.6 3.8 73 8.6
2004-05-07 08:10:16 51°11.882 2°47.708 73.4 3.8 73 8.5
2004-05-07 08:10:21 51°11.884 2°47.716 73.5 3.8 72 8.5
2004-05-07 08:10:26 51°11.885 2°47.724 73.6 3.8 73 8.5
2004-05-07 08:10:31 51°11.886 2°47.732 73.6 3.8 72 8.5
2004-05-07 08:10:36 51°11.888 2°47.739 73.7 3.7 73 8.5
2004-05-07 08:10:41 51°11.889 2°47.747 73.9 3.6 74 8.5
2004-05-07 08:10:46 51°11.891 2°47.755 73.9 3.6 74 8.6
2004-05-07 08:10:50 51°11.892 2°47.761 74 3.6 74 8.6
2004-05-07 08:10:56 51°11.893 2°47.77 74 3.5 73 8.6
2004-05-07 08:11:01 51°11.894 2°47.777 74.2 3.5 74 8.5
2004-05-07 08:11:06 51°11.895 2°47.784 74.4 3.5 74 8.5
2004-05-07 08:11:11 51°11.897 2°47.792 74.3 3.5 73 8.5
2004-05-07 08:11:15 51°11.897 2°47.798 74.3 3.5 74 8.5
2004-05-07 08:11:21 51°11.899 2°47.806 74.3 3.4 75 8.4
2004-05-07 08:11:26 51°11.9 2°47.814 74.2 3.4 74 8.5
2004-05-07 08:11:30 51°11.901 2°47.819 74.2 3.4 73 8.4
2004-05-07 08:11:36 51°11.902 2°47.828 73.9 3.4 74 8.5
2004-05-07 08:11:41 51°11.904 2°47.835 73.9 3.4 73 8.5
2004-05-07 08:11:46 51°11.905 2°47.842 73.7 3.4 75 8.4
2004-05-07 08:11:49 51°11.906 2°47.847 73.7 3.3 74 8.5
2004-05-07 08:11:56 51°11.907 2°47.857 73.7 3.3 74 8.4
2004-05-07 08:12:01 51°11.909 2°47.864 73.7 3.3 74 8.4
2004-05-07 08:12:06 51°11.91 2°47.871 73.6 3.3 74 8.4
2004-05-07 08:12:10 51°11.911 2°47.876 73.7 3.3 73 8.4
2004-05-07 08:12:16 51°11.912 2°47.885 73.7 3.3 73 8.4
2004-05-07 08:12:21 51°11.914 2°47.892 73.4 3.3 74 8.4
2004-05-07 08:12:26 51°11.915 2°47.898 73.1 3.3 71 8.4
2004-05-07 08:12:31 51°11.916 2°47.905 72.5 3.3 73 8.4
2004-05-07 08:12:36 51°11.918 2°47.912 71.9 3.2 71 8.4
2004-05-07 08:12:41 51°11.919 2°47.919 71.2 3.3 70 8.5
2004-05-07 08:12:45 51°11.92 2°47.924 70.5 3.3 68 8.4
2004-05-07 08:12:51 51°11.922 2°47.933 70 3.3 69 8.4
2004-05-07 08:12:56 51°11.924 2°47.939 69.6 3.3 68 8.4
2004-05-07 08:13:01 51°11.926 2°47.946 69.1 3.3 67 8.4
2004-05-07 08:13:06 51°11.927 2°47.952 68.7 3.2 67 8.4
2004-05-07 08:13:11 51°11.929 2°47.959 68.3 3.3 69 8.4
2004-05-07 08:13:16 51°11.931 2°47.966 68.1 3.2 67 8.3
2004-05-07 08:13:21 51°11.932 2°47.972 68 3.2 67 8.4
2004-05-07 08:13:26 51°11.934 2°47.979 67.7 3.2 67 8.3
2004-05-07 08:13:31 51°11.936 2°47.985 67.6 3.2 68 8.4
2004-05-07 08:13:37 51°11.938 2°47.993 67.5 3.2 68 8.3
2004-05-07 08:13:41 51°11.94 2°47.998 67.5 3.2 65 8.3
2004-05-07 08:13:46 51°11.941 2°48.005 67.3 3.2 67 8.3
2004-05-07 08:13:50 51°11.943 2°48.01 67.3 3.2 67 8.4
2004-05-07 08:13:56 51°11.945 2°48.018 67.4 3.2 69 8.3
2004-05-07 08:14:01 51°11.946 2°48.024 67.4 3.2 65 8.4
2004-05-07 08:14:06 51°11.948 2°48.031 67.5 3.2 68 8.3
2004-05-07 08:14:10 51°11.949 2°48.036 68 3.2 67 8.3
2004-05-07 08:14:16 51°11.951 2°48.044 68.1 3.2 68 8.4
2004-05-07 08:14:21 51°11.953 2°48.05 68.2 3.2 65 8.3
2004-05-07 08:14:26 51°11.954 2°48.057 68.2 3.2 67 8.4
2004-05-07 08:14:31 51°11.956 2°48.063 68.2 3.2 68 8.4
2004-05-07 08:14:36 51°11.957 2°48.07 68.2 3.2 68 8.3
2004-05-07 08:14:41 51°11.959 2°48.076 68 3.2 65 8.4
2004-05-07 08:14:46 51°11.961 2°48.083 68 3.2 68 8.3
2004-05-07 08:14:51 51°11.962 2°48.089 67.9 3.2 66 8.4
2004-05-07 08:14:55 51°11.963 2°48.095 68 3.2 67 8.3
2004-05-07 08:15:01 51°11.965 2°48.102 68 3.2 66 8.4
2004-05-07 08:15:06 51°11.967 2°48.109 68.1 3.2 68 8.3
2004-05-07 08:15:10 51°11.968 2°48.114 68.1 3.2 67 8.3
2004-05-07 08:15:16 51°11.97 2°48.122 68.1 3.2 68 8.3
2004-05-07 08:15:21 51°11.972 2°48.128 68.2 3.2 65 8.3
2004-05-07 08:15:26 51°11.973 2°48.135 68.2 3.2 69 8.3
2004-05-07 08:15:29 51°11.974 2°48.138 68.2 3.2 66 8.3
2004-05-07 08:15:36 51°11.977 2°48.148 68.2 3.2 66 8.4
2004-05-07 08:15:41 51°11.978 2°48.154 68.4 3.2 66 8.3
2004-05-07 08:15:46 51°11.98 2°48.161 68.6 3.2 67 8.3
2004-05-07 08:15:51 51°11.981 2°48.167 68.7 3.2 67 8.3
2004-05-07 08:15:55 51°11.982 2°48.172 68.9 3.2 69 8.3
2004-05-07 08:16:01 51°11.985 2°48.18 68.9 3.2 69 8.3
2004-05-07 08:16:06 51°11.986 2°48.187 69.1 3.2 68 8.3
2004-05-07 08:16:11 51°11.988 2°48.193 69.1 3.2 67 8.3
2004-05-07 08:16:16 51°11.989 2°48.2 69.2 3.2 68 8.3
2004-05-07 08:16:21 51°11.991 2°48.207 69.3 3.2 69 8.3
2004-05-07 08:16:26 51°11.992 2°48.213 69.4 3.2 68 8.3
2004-05-07 08:16:30 51°11.993 2°48.218 69.4 3.2 69 8.3
2004-05-07 08:16:36 51°11.995 2°48.226 69.4 3.2 67 8.3
2004-05-07 08:16:41 51°11.996 2°48.233 69.4 3.2 67 8.3
2004-05-07 08:16:46 51°11.998 2°48.24 69.3 3.2 68 8.3
2004-05-07 08:16:49 51°11.999 2°48.243 68.9 3.2 66 8.3
2004-05-07 08:16:56 51°12.002 2°48.252 67.7 3.2 68 8.3
2004-05-07 08:17:01 51°12.003 2°48.259 66.8 3.2 64 8.3
2004-05-07 08:17:06 51°12.005 2°48.265 65.5 3.2 64 8.3
2004-05-07 08:17:11 51°12.007 2°48.271 64.7 3.2 63 8.2
2004-05-07 08:17:16 51°12.009 2°48.278 63.5 3.2 62 8.3
2004-05-07 08:17:21 51°12.012 2°48.284 62.6 3.1 59 8.2
2004-05-07 08:17:25 51°12.013 2°48.288 61.6 3.1 59 8.3
2004-05-07 08:17:31 51°12.016 2°48.295 60.7 3.1 58 8.3
2004-05-07 08:17:35 51°12.018 2°48.3 60.1 3.1 58 8.2
2004-05-07 08:17:41 51°12.021 2°48.307 59.5 3.1 56 8.3
2004-05-07 08:17:46 51°12.024 2°48.313 58.9 3.1 57 8.3
2004-05-07 08:17:50 51°12.026 2°48.317 58.5 3.1 55 8.3
2004-05-07 08:17:56 51°12.029 2°48.324 58.2 3.1 55 8.3
2004-05-07 08:18:01 51°12.031 2°48.33 57.8 3.1 54 8.3
2004-05-07 08:18:06 51°12.034 2°48.335 57.5 3.1 55 8.3
2004-05-07 08:18:10 51°12.036 2°48.34 57.3 3.1 53 8.3
2004-05-07 08:18:16 51°12.039 2°48.346 57 3.1 52 8.3
2004-05-07 08:18:21 51°12.042 2°48.352 56.8 3.1 53 8.3
2004-05-07 08:18:26 51°12.044 2°48.357 56.7 3.1 53 8.3
2004-05-07 08:18:31 51°12.047 2°48.363 56.6 3.1 52 8.3
2004-05-07 08:18:35 51°12.049 2°48.368 56.6 3.1 52 8.3
2004-05-07 08:18:41 51°12.052 2°48.374 56.6 3.1 54 8.3
2004-05-07 08:18:46 51°12.055 2°48.38 56.6 3.1 53 8.4
2004-05-07 08:18:51 51°12.057 2°48.385 56.6 3.1 53 8.4
2004-05-07 08:18:56 51°12.06 2°48.391 56.5 3.2 52 8.3
2004-05-07 08:19:01 51°12.062 2°48.396 56.6 3.2 55 8.4
2004-05-07 08:19:06 51°12.065 2°48.402 56.6 3.2 51 8.4
2004-05-07 08:19:09 51°12.067 2°48.405 56.5 3.1 53 8.4
2004-05-07 08:19:14 51°12.069 2°48.411 56.7 3.2 54 8.4
2004-05-07 08:19:21 51°12.073 2°48.419 56.7 3.2 53 8.4
2004-05-07 08:19:26 51°12.075 2°48.424 57 3.2 54 8.4
2004-05-07 08:19:30 51°12.078 2°48.429 57.1 3.1 53 8.4
2004-05-07 08:19:36 51°12.081 2°48.436 57.3 3.2 55 8.4
2004-05-07 08:19:41 51°12.083 2°48.441 57.3 3.1 53 8.4
2004-05-07 08:19:46 51°12.086 2°48.447 57.4 3.1 55 8.4
2004-05-07 08:19:50 51°12.088 2°48.451 57.5 3.1 53 8.5
2004-05-07 08:19:56 51°12.091 2°48.458 57.7 3.2 54 8.4
2004-05-07 08:20:01 51°12.093 2°48.464 58 3.1 55 8.4
2004-05-07 08:20:06 51°12.096 2°48.47 58.1 3.1 55 8.5
2004-05-07 08:20:11 51°12.098 2°48.475 58.2 3.2 55 8.5
2004-05-07 08:20:16 51°12.101 2°48.481 58.4 3.1 56 8.5
2004-05-07 08:20:21 51°12.103 2°48.487 58.4 3.2 56 8.5
2004-05-07 08:20:26 51°12.106 2°48.492 58.5 3.1 55 8.5
2004-05-07 08:20:30 51°12.108 2°48.497 58.5 3.2 56 8.5
2004-05-07 08:20:35 51°12.11 2°48.503 58.7 3.2 55 8.5
2004-05-07 08:20:41 51°12.113 2°48.51 58.9 3.2 57 8.5
2004-05-07 08:20:46 51°12.116 2°48.516 59.1 3.1 56 8.5
2004-05-07 08:20:50 51°12.117 2°48.521 59.2 3.1 57 8.5
2004-05-07 08:20:57 51°12.121 2°48.529 59.4 3.2 56 8.5
2004-05-07 08:21:01 51°12.123 2°48.534 59.5 3.1 58 8.5
2004-05-07 08:21:06 51°12.125 2°48.54 59.7 3.1 57 8.5
2004-05-07 08:21:10 51°12.127 2°48.544 59.8 3.2 58 8.5
2004-05-07 08:21:16 51°12.13 2°48.552 59.9 3.2 57 8.5
2004-05-07 08:21:21 51°12.133 2°48.558 59.9 3.2 57 8.5
2004-05-07 08:21:26 51°12.135 2°48.564 60 3.2 57 8.5
2004-05-07 08:21:30 51°12.137 2°48.568 59.8 3.1 56 8.5
2004-05-07 08:21:36 51°12.14 2°48.576 59.6 3.2 56 8.5
2004-05-07 08:21:41 51°12.142 2°48.581 59.5 3.1 56 8.5
2004-05-07 08:21:45 51°12.144 2°48.586 59.5 3.1 57 8.5
2004-05-07 08:21:51 51°12.147 2°48.593 59.4 3.1 57 8.5
2004-05-07 08:21:56 51°12.15 2°48.599 59.3 3.1 57 8.5
2004-05-07 08:22:01 51°12.152 2°48.605 59.1 3.1 56 8.5
2004-05-07 08:22:06 51°12.155 2°48.611 59.1 3.1 57 8.5
2004-05-07 08:22:12 51°12.157 2°48.618 59.1 3.1 56 8.5
2004-05-07 08:22:16 51°12.159 2°48.622 59.1 3.1 56 8.5
2004-05-07 08:22:21 51°12.162 2°48.628 59.1 3.1 56 8.5
2004-05-07 08:22:26 51°12.164 2°48.634 59.1 3.1 57 8.5
2004-05-07 08:22:30 51°12.166 2°48.639 59.1 3.1 56 8.6
2004-05-07 08:22:36 51°12.169 2°48.646 59.1 3.1 57 8.5
2004-05-07 08:22:41 51°12.171 2°48.651 59.3 3.1 56 8.5
2004-05-07 08:22:46 51°12.174 2°48.657 59.4 3.1 57 8.5
2004-05-07 08:22:49 51°12.175 2°48.661 59.5 3.2 57 8.6
2004-05-07 08:22:56 51°12.179 2°48.669 59.5 3.1 57 8.6
2004-05-07 08:23:01 51°12.181 2°48.675 59.5 3.1 57 8.5
2004-05-07 08:23:06 51°12.183 2°48.681 59.6 3.1 57 8.5
2004-05-07 08:23:11 51°12.186 2°48.686 59.5 3.1 56 8.5
2004-05-07 08:23:15 51°12.188 2°48.691 59.5 3.1 54 8.5
2004-05-07 08:23:21 51°12.19 2°48.698 59.4 3.2 58 8.6
2004-05-07 08:23:26 51°12.193 2°48.704 59.2 3.1 55 8.6
2004-05-07 08:23:31 51°12.195 2°48.709 59.1 3.1 56 8.6
2004-05-07 08:23:36 51°12.198 2°48.715 59.1 3.1 56 8.6
2004-05-07 08:23:41 51°12.2 2°48.721 59.1 3.1 57 8.6
2004-05-07 08:23:46 51°12.202 2°48.726 59.1 3.1 56 8.6
2004-05-07 08:23:49 51°12.204 2°48.73 59 3.2 56 8.6
2004-05-07 08:23:54 51°12.206 2°48.736 59 3.1 56 8.6
2004-05-07 08:24:01 51°12.21 2°48.744 59 3.1 56 8.6
2004-05-07 08:24:05 51°12.211 2°48.748 59 3.1 56 8.6
2004-05-07 08:24:11 51°12.215 2°48.755 59 3.1 56 8.6
2004-05-07 08:24:16 51°12.217 2°48.761 59 3.1 57 8.6
2004-05-07 08:24:21 51°12.219 2°48.767 59.2 3.2 55 8.6
2004-05-07 08:24:26 51°12.222 2°48.773 59.1 3.2 57 8.6
2004-05-07 08:24:30 51°12.224 2°48.777 59.3 3.1 54 8.6
2004-05-07 08:24:36 51°12.226 2°48.784 59.3 3.1 58 8.6
2004-05-07 08:24:41 51°12.229 2°48.79 59.2 3.1 55 8.6
2004-05-07 08:24:46 51°12.231 2°48.796 59.2 3.1 58 8.6
2004-05-07 08:24:51 51°12.234 2°48.801 59.2 3.1 55 8.6
2004-05-07 08:24:55 51°12.235 2°48.806 59.3 3.1 57 8.6
2004-05-07 08:25:01 51°12.239 2°48.813 59.5 3.1 55 8.6
2004-05-07 08:25:05 51°12.24 2°48.818 59.5 3.1 58 8.6
2004-05-07 08:25:11 51°12.243 2°48.824 59.7 3.1 55 8.6
2004-05-07 08:25:16 51°12.246 2°48.83 59.7 3.1 56 8.6
2004-05-07 08:25:21 51°12.248 2°48.836 59.8 3.1 56 8.6
2004-05-07 08:25:26 51°12.25 2°48.842 59.9 3.1 58 8.6
2004-05-07 08:25:31 51°12.253 2°48.848 59.8 3.1 55 8.6
2004-05-07 08:25:36 51°12.255 2°48.853 59.6 3.1 58 8.6
2004-05-07 08:25:41 51°12.257 2°48.859 59.5 3.1 57 8.6
2004-05-07 08:25:46 51°12.26 2°48.865 59.5 3.1 57 8.6
2004-05-07 08:25:50 51°12.262 2°48.87 59.5 3.1 57 8.6
2004-05-07 08:25:56 51°12.264 2°48.876 59.5 3.1 57 8.6
2004-05-07 08:26:01 51°12.267 2°48.882 59.5 3.1 58 8.6
2004-05-07 08:26:06 51°12.269 2°48.888 59.6 3.1 57 8.6
2004-05-07 08:26:10 51°12.271 2°48.893 59.6 3.1 57 8.7
2004-05-07 08:26:16 51°12.274 2°48.899 59.6 3.1 56 8.6
2004-05-07 08:26:21 51°12.276 2°48.905 59.6 3.1 57 8.6
2004-05-07 08:26:26 51°12.278 2°48.911 59.5 3.1 56 8.6
2004-05-07 08:26:30 51°12.28 2°48.915 59.5 3.1 57 8.6
2004-05-07 08:26:36 51°12.283 2°48.922 59.5 3.1 56 8.6
2004-05-07 08:26:41 51°12.285 2°48.928 59.5 3.1 58 8.6
2004-05-07 08:26:45 51°12.287 2°48.933 59.4 3.1 56 8.6
2004-05-07 08:26:50 51°12.289 2°48.938 59.4 3.1 58 8.6
2004-05-07 08:26:56 51°12.292 2°48.945 59.1 3.1 56 8.6
2004-05-07 08:27:01 51°12.294 2°48.951 59.2 3.1 57 8.7
2004-05-07 08:27:06 51°12.296 2°48.957 59.2 3.1 56 8.7
2004-05-07 08:27:10 51°12.298 2°48.961 59.1 3.1 57 8.7
2004-05-07 08:27:16 51°12.301 2°48.968 59 3.1 55 8.7
2004-05-07 08:27:21 51°12.303 2°48.974 59.1 3.1 57 8.6
2004-05-07 08:27:26 51°12.306 2°48.979 59.1 3.1 56 8.6
2004-05-07 08:27:31 51°12.308 2°48.985 59.1 3.1 57 8.7
2004-05-07 08:27:36 51°12.31 2°48.991 59.1 3.1 56 8.7
2004-05-07 08:27:41 51°12.313 2°48.996 59.1 3.1 57 8.7
2004-05-07 08:27:46 51°12.315 2°49.002 59.1 3.1 56 8.7
2004-05-07 08:27:50 51°12.317 2°49.007 59.1 3.1 55 8.7
2004-05-07 08:27:56 51°12.32 2°49.013 59.1 3.1 55 8.7
2004-05-07 08:28:01 51°12.323 2°49.019 59 3.1 57 8.7
2004-05-07 08:28:06 51°12.325 2°49.025 59 3.1 55 8.7
2004-05-07 08:28:09 51°12.327 2°49.028 59 3.1 57 8.7
2004-05-07 08:28:16 51°12.33 2°49.036 58.9 3.1 55 8.7
2004-05-07 08:28:21 51°12.333 2°49.042 58.8 3.1 57 8.7
2004-05-07 08:28:25 51°12.335 2°49.046 58.8 3 55 8.7
2004-05-07 08:28:31 51°12.338 2°49.053 58.8 3 56 8.7
2004-05-07 08:28:36 51°12.34 2°49.059 58.7 3 57 8.7
2004-05-07 08:28:41 51°12.343 2°49.065 58.8 3 55 8.7
2004-05-07 08:28:46 51°12.345 2°49.07 58.8 3 56 8.8
2004-05-07 08:28:51 51°12.348 2°49.076 58.8 3.1 55 8.7
2004-05-07 08:28:56 51°12.35 2°49.082 58.9 3 57 8.7
2004-05-07 08:29:01 51°12.353 2°49.087 59.1 3 56 8.7
2004-05-07 08:29:06 51°12.355 2°49.093 59 3 57 8.7
2004-05-07 08:29:10 51°12.357 2°49.098 59 3 57 8.8
2004-05-07 08:29:16 51°12.36 2°49.104 59.1 3 56 8.7
2004-05-07 08:29:21 51°12.363 2°49.11 59.1 3 55 8.7
2004-05-07 08:29:26 51°12.365 2°49.116 58.9 3.1 56 8.7
2004-05-07 08:29:30 51°12.367 2°49.12 58.8 3 55 8.7
2004-05-07 08:29:37 51°12.37 2°49.128 58.8 3 56 8.7
2004-05-07 08:29:41 51°12.372 2°49.132 58.8 3 56 8.7
2004-05-07 08:29:46 51°12.375 2°49.138 58.9 3 56 8.8
2004-05-07 08:29:51 51°12.377 2°49.144 59.1 3 58 8.8
2004-05-07 08:29:56 51°12.379 2°49.149 59 3 57 8.7
2004-05-07 08:30:01 51°12.382 2°49.155 59.1 3 55 8.8
2004-05-07 08:30:05 51°12.384 2°49.159 59.3 3.1 55 8.8
2004-05-07 08:30:10 51°12.386 2°49.165 59.3 3 56 8.7
2004-05-07 08:30:16 51°12.389 2°49.172 59.5 3.1 57 8.7
2004-05-07 08:30:21 51°12.391 2°49.177 59.4 3 56 8.8
2004-05-07 08:30:26 51°12.393 2°49.182 59.4 3 57 8.7
2004-05-07 08:30:31 51°12.395 2°49.188 59.5 3 56 8.8
2004-05-07 08:30:36 51°12.397 2°49.194 59.7 3 58 8.8
2004-05-07 08:30:41 51°12.399 2°49.199 59.8 3 56 8.8
2004-05-07 08:30:46 51°12.402 2°49.205 59.9 3.1 57 8.7
2004-05-07 08:30:49 51°12.403 2°49.209 60 3.1 55 8.7
2004-05-07 08:30:56 51°12.406 2°49.216 60 3 59 8.7
2004-05-07 08:31:01 51°12.409 2°49.222 60 3 56 8.8
2004-05-07 08:31:06 51°12.411 2°49.228 60 3 59 8.7
2004-05-07 08:31:11 51°12.413 2°49.233 60 3 57 8.8
2004-05-07 08:31:16 51°12.415 2°49.239 60 3 59 8.8
2004-05-07 08:31:21 51°12.417 2°49.244 60 3 57 8.8
2004-05-07 08:31:26 51°12.419 2°49.25 60.1 3.1 57 8.8
2004-05-07 08:31:31 51°12.421 2°49.256 60.2 3 57 8.8
2004-05-07 08:31:36 51°12.423 2°49.261 60.2 3 59 8.8
2004-05-07 08:31:41 51°12.425 2°49.267 60.8 3 59 8.8
2004-05-07 08:31:46 51°12.427 2°49.272 61.5 3 59 8.8
2004-05-07 08:31:51 51°12.429 2°49.278 62.4 2.9 63 8.8
2004-05-07 08:31:56 51°12.431 2°49.284 63.5 3 59 8.8
2004-05-07 08:32:01 51°12.432 2°49.29 64.4 3 63 8.8
2004-05-07 08:32:05 51°12.434 2°49.295 65.6 3 63 8.8
2004-05-07 08:32:10 51°12.435 2°49.301 66.6 2.9 69 8.8
2004-05-07 08:32:15 51°12.436 2°49.306 67.2 3 67 8.8
2004-05-07 08:32:21 51°12.438 2°49.313 67.5 2.9 66 8.8
2004-05-07 08:32:26 51°12.439 2°49.319 67.5 3 66 8.8
2004-05-07 08:32:30 51°12.441 2°49.324 67.5 2.9 68 8.8
2004-05-07 08:32:36 51°12.442 2°49.331 67.3 2.9 68 8.8
2004-05-07 08:32:41 51°12.444 2°49.336 66.9 2.8 66 8.8
2004-05-07 08:32:46 51°12.445 2°49.342 66.7 2.8 67 8.8
2004-05-07 08:32:50 51°12.446 2°49.347 66.6 2.8 65 8.7
2004-05-07 08:32:56 51°12.448 2°49.353 66.2 2.8 66 8.7
2004-05-07 08:33:01 51°12.449 2°49.359 65.9 2.8 66 8.7
2004-05-07 08:33:05 51°12.45 2°49.363 65.9 2.8 63 8.8
2004-05-07 08:33:11 51°12.452 2°49.37 65.4 2.8 66 8.8
2004-05-07 08:33:16 51°12.454 2°49.375 65.3 2.8 66 8.7
2004-05-07 08:33:21 51°12.455 2°49.38 65.1 2.7 62 8.7
2004-05-07 08:33:26 51°12.457 2°49.386 65.1 2.8 63 8.7
2004-05-07 08:33:30 51°12.458 2°49.39 64.5 2.8 63 8.7
2004-05-07 08:33:36 51°12.46 2°49.397 64.2 2.8 63 8.7
2004-05-07 08:33:41 51°12.462 2°49.402 63.6 2.8 60 8.7
2004-05-07 08:33:46 51°12.463 2°49.407 63.1 2.9 60 8.7
2004-05-07 08:33:50 51°12.465 2°49.412 62.2 2.9 59 8.7
2004-05-07 08:33:57 51°12.467 2°49.418 61.3 2.6 59 8.7
2004-05-07 08:34:01 51°12.469 2°49.422 60.4 2.5 55 8.7
2004-05-07 08:34:06 51°12.47 2°49.427 59.1 2.4 59 8.7
2004-05-07 08:34:10 51°12.472 2°49.429 57.7 2.3 53 8.7
2004-05-07 08:34:16 51°12.474 2°49.434 56.3 2.1 52 8.7
2004-05-07 08:34:21 51°12.476 2°49.437 54.6 2.1 47 8.7
2004-05-07 08:34:26 51°12.478 2°49.44 52.9 2 50 8.7
2004-05-07 08:34:30 51°12.479 2°49.443 51.5 1.9 44 8.7
2004-05-07 08:34:36 51°12.482 2°49.446 50 1.8 44 8.7
2004-05-07 08:34:41 51°12.483 2°49.448 48.5 1.7 37 8.7
2004-05-07 08:34:46 51°12.485 2°49.451 46.9 1.6 39 8.7
2004-05-07 08:34:51 51°12.487 2°49.452 45.7 1.6 36 8.8
2004-05-07 08:34:56 51°12.489 2°49.454 44.3 1.5 35 8.8
2004-05-07 08:35:01 51°12.49 2°49.456 43.1 1.4 26 8.8
2004-05-07 08:35:06 51°12.492 2°49.457 42.2 1.4 28 8.8
2004-05-07 08:35:11 51°12.494 2°49.458 41.2 1.3 22 8.8
2004-05-07 08:35:16 51°12.495 2°49.46 39.9 1.3 26 8.8
2004-05-07 08:35:21 51°12.497 2°49.46 38.9 1.2 19 8.9
2004-05-07 08:35:26 51°12.498 2°49.461 38 1.2 21 8.9
2004-05-07 08:35:31 51°12.5 2°49.462 37.1 1.2 11 8.9
2004-05-07 08:35:36 51°12.501 2°49.463 36.3 1.1 18 8.9
2004-05-07 08:35:41 51°12.503 2°49.463 35.5 1.1 5 8.9
2004-05-07 08:35:46 51°12.504 2°49.463 34.7 1 14 8.9
2004-05-07 08:35:51 51°12.506 2°49.463 34 1 3 9
2004-05-07 08:35:54 51°12.506 2°49.464 33.2 1 3 8.9
2004-05-07 08:36:01 51°12.508 2°49.464 32.7 1 1 9
2004-05-07 08:36:05 51°12.509 2°49.464 32 0.9 1 9
2004-05-07 08:36:10 51°12.511 2°49.464 31.2 0.9 357 9
2004-05-07 08:36:16 51°12.512 2°49.463 30.4 0.9 353 9
2004-05-07 08:36:21 51°12.513 2°49.463 29.8 0.8 353 9
2004-05-07 08:36:26 51°12.515 2°49.463 29.2 0.9 349 9
2004-05-07 08:36:30 51°12.515 2°49.463 28.6 0.8 344 9
2004-05-07 08:36:36 51°12.517 2°49.462 28.3 0.8 346 9.1
2004-05-07 08:36:41 51°12.518 2°49.461 27.5 0.8 340 9
2004-05-07 08:36:46 51°12.519 2°49.461 26.7 0.8 343 9.1
2004-05-07 08:36:51 51°12.52 2°49.46 25.7 0.8 337 9.1
2004-05-07 08:36:56 51°12.521 2°49.46 25.1 0.7 338 9.1
2004-05-07 08:37:01 51°12.522 2°49.459 24.3 0.8 328 9.1
2004-05-07 08:37:06 51°12.523 2°49.458 23.6 0.7 335 9.1
2004-05-07 08:37:11 51°12.524 2°49.457 22.5 0.8 324 9.1
2004-05-07 08:37:17 51°12.525 2°49.456 22.2 0.7 325 9.1
2004-05-07 08:37:21 51°12.525 2°49.455 21.5 0.8 321 9.1
2004-05-07 08:37:25 51°12.526 2°49.455 20.9 0.7 327 9.1
2004-05-07 08:37:30 51°12.527 2°49.454 20.3 0.8 320 9.1
2004-05-07 08:37:36 51°12.528 2°49.452 19.9 0.7 321 9.2
2004-05-07 08:37:41 51°12.528 2°49.451 19.5 0.8 315 9.2
2004-05-07 08:37:46 51°12.529 2°49.45 19.1 0.7 316 9.2
2004-05-07 08:37:51 51°12.53 2°49.449 18.8 0.8 311 9.2
2004-05-07 08:37:56 51°12.531 2°49.448 18.2 0.8 308 9.2
2004-05-07 08:38:01 51°12.531 2°49.446 17.9 0.7 311 9.2
2004-05-07 08:38:06 51°12.532 2°49.445 17.4 0.7 308 9.2